sensor_id;sensor_type;location;lat;lon;timestamp;temperature;humidity
3980;DHT22;2004;52.452;13.120;2023-01-28T00:06:05;1.20;99.90
3980;DHT22;2004;52.452;13.120;2023-01-28T00:13:56;1.20;99.90
3980;DHT22;2004;52.452;13.120;2023-01-28T00:21:46;1.10;99.90
3980;DHT22;2004;52.452;13.120;2023-01-28T00:29:37;1.00;99.90
3980;DHT22;2004;52.452;13.120;2023-01-28T00:37:27;0.90;99.90
3980;DHT22;2004;52.452;13.120;2023-01-28T00:45:18;0.70;99.90
3980;DHT22;2004;52.452;13.120;2023-01-28T00:53:08;0.60;99.90
3980;DHT22;2004;52.452;13.120;2023-01-28T01:01:14;0.40;99.90
3980;DHT22;2004;52.452;13.120;2023-01-28T01:09:09;0.30;99.90
3980;DHT22;2004;52.452;13.120;2023-01-28T01:17:00;0.20;99.90
3980;DHT22;2004;52.452;13.120;2023-01-28T01:24:50;0.20;99.90
3980;DHT22;2004;52.452;13.120;2023-01-28T01:32:41;0.20;99.90
3980;DHT22;2004;52.452;13.120;2023-01-28T01:40:31;0.10;99.90
3980;DHT22;2004;52.452;13.120;2023-01-28T01:48:26;0.20;99.90
3980;DHT22;2004;52.452;13.120;2023-01-28T01:56:20;0.20;99.90
3980;DHT22;2004;52.452;13.120;2023-01-28T02:04:18;0.20;99.90
3980;DHT22;2004;52.452;13.120;2023-01-28T02:12:15;0.20;99.90
3980;DHT22;2004;52.452;13.120;2023-01-28T02:20:09;0.20;99.90
3980;DHT22;2004;52.452;13.120;2023-01-28T02:36:31;0.20;99.90
3980;DHT22;2004;52.452;13.120;2023-01-28T02:44:25;0.30;99.90
3980;DHT22;2004;52.452;13.120;2023-01-28T03:01:07;0.30;99.90
3980;DHT22;2004;52.452;13.120;2023-01-28T03:09:02;0.30;99.90
3980;DHT22;2004;52.452;13.120;2023-01-28T03:17:20;0.30;99.90
3980;DHT22;2004;52.452;13.120;2023-01-28T03:25:33;0.40;99.90
3980;DHT22;2004;52.452;13.120;2023-01-28T03:33:43;0.40;99.90
3980;DHT22;2004;52.452;13.120;2023-01-28T03:41:57;0.40;99.90
3980;DHT22;2004;52.452;13.120;2023-01-28T03:49:50;0.40;99.90
3980;DHT22;2004;52.452;13.120;2023-01-28T03:57:40;0.40;99.90
3980;DHT22;2004;52.452;13.120;2023-01-28T04:05:31;0.50;99.90
3980;DHT22;2004;52.452;13.120;2023-01-28T04:13:21;0.40;99.90
3980;DHT22;2004;52.452;13.120;2023-01-28T04:21:12;0.40;99.90
3980;DHT22;2004;52.452;13.120;2023-01-28T04:29:03;0.40;99.90
3980;DHT22;2004;52.452;13.120;2023-01-28T04:36:53;0.40;99.90
3980;DHT22;2004;52.452;13.120;2023-01-28T04:44:44;0.40;99.90
3980;DHT22;2004;52.452;13.120;2023-01-28T04:52:34;0.40;99.90
3980;DHT22;2004;52.452;13.120;2023-01-28T05:00:25;0.50;99.90
3980;DHT22;2004;52.452;13.120;2023-01-28T05:08:15;0.50;99.90
3980;DHT22;2004;52.452;13.120;2023-01-28T05:16:06;0.60;99.90
3980;DHT22;2004;52.452;13.120;2023-01-28T05:23:56;0.60;99.90
3980;DHT22;2004;52.452;13.120;2023-01-28T05:31:47;0.60;99.90
3980;DHT22;2004;52.452;13.120;2023-01-28T05:39:37;0.60;99.90
3980;DHT22;2004;52.452;13.120;2023-01-28T05:47:28;0.70;99.90
3980;DHT22;2004;52.452;13.120;2023-01-28T05:55:18;0.70;99.90
3980;DHT22;2004;52.452;13.120;2023-01-28T06:03:09;0.70;99.90
3980;DHT22;2004;52.452;13.120;2023-01-28T06:11:00;0.70;99.90
3980;DHT22;2004;52.452;13.120;2023-01-28T06:18:51;0.70;99.90
3980;DHT22;2004;52.452;13.120;2023-01-28T06:26:41;0.70;99.90
3980;DHT22;2004;52.452;13.120;2023-01-28T06:34:32;0.70;99.90
3980;DHT22;2004;52.452;13.120;2023-01-28T06:42:23;0.70;99.90
3980;DHT22;2004;52.452;13.120;2023-01-28T06:50:13;0.70;99.90
3980;DHT22;2004;52.452;13.120;2023-01-28T06:58:04;0.80;99.90
3980;DHT22;2004;52.452;13.120;2023-01-28T07:05:59;0.80;99.90
3980;DHT22;2004;52.452;13.120;2023-01-28T07:13:49;0.80;99.90
3980;DHT22;2004;52.452;13.120;2023-01-28T07:21:40;0.80;99.90
3980;DHT22;2004;52.452;13.120;2023-01-28T07:29:31;0.80;99.90
3980;DHT22;2004;52.452;13.120;2023-01-28T07:37:21;0.90;99.90
3980;DHT22;2004;52.452;13.120;2023-01-28T07:45:13;0.90;99.90
3980;DHT22;2004;52.452;13.120;2023-01-28T07:53:08;0.90;99.90
3980;DHT22;2004;52.452;13.120;2023-01-28T08:01:00;0.90;99.90
3980;DHT22;2004;52.452;13.120;2023-01-28T08:08:51;1.00;99.90
3980;DHT22;2004;52.452;13.120;2023-01-28T08:16:42;1.00;99.90
3980;DHT22;2004;52.452;13.120;2023-01-28T08:24:32;1.10;99.90
3980;DHT22;2004;52.452;13.120;2023-01-28T08:32:23;1.10;99.90
3980;DHT22;2004;52.452;13.120;2023-01-28T08:40:13;1.10;99.90
3980;DHT22;2004;52.452;13.120;2023-01-28T08:48:06;1.20;99.90
3980;DHT22;2004;52.452;13.120;2023-01-28T08:55:57;1.20;99.90
3980;DHT22;2004;52.452;13.120;2023-01-28T09:03:47;1.30;99.90
3980;DHT22;2004;52.452;13.120;2023-01-28T09:11:38;1.40;99.90
3980;DHT22;2004;52.452;13.120;2023-01-28T09:19:28;1.40;99.90
3980;DHT22;2004;52.452;13.120;2023-01-28T09:27:19;1.50;99.90
3980;DHT22;2004;52.452;13.120;2023-01-28T09:35:10;1.60;99.90
3980;DHT22;2004;52.452;13.120;2023-01-28T09:59:22;1.80;99.90
3980;DHT22;2004;52.452;13.120;2023-01-28T10:31:43;2.00;98.40
3980;DHT22;2004;52.452;13.120;2023-01-28T10:39:36;2.00;98.60
3980;DHT22;2004;52.452;13.120;2023-01-28T10:55:51;2.10;96.70
3980;DHT22;2004;52.452;13.120;2023-01-28T11:03:53;2.10;98.50
3980;DHT22;2004;52.452;13.120;2023-01-28T11:11:44;2.10;98.80
3980;DHT22;2004;52.452;13.120;2023-01-28T11:19:35;2.10;97.60
3980;DHT22;2004;52.452;13.120;2023-01-28T11:27:28;2.10;97.90
3980;DHT22;2004;52.452;13.120;2023-01-28T11:35:28;2.10;98.20
3980;DHT22;2004;52.452;13.120;2023-01-28T11:43:22;2.10;98.20
3980;DHT22;2004;52.452;13.120;2023-01-28T11:51:39;2.10;98.40
3980;DHT22;2004;52.452;13.120;2023-01-28T11:59:58;2.10;98.00
3980;DHT22;2004;52.452;13.120;2023-01-28T12:16:10;2.00;97.70
3980;DHT22;2004;52.452;13.120;2023-01-28T12:32:35;2.10;98.20
3980;DHT22;2004;52.452;13.120;2023-01-28T12:48:36;2.10;98.80
3980;DHT22;2004;52.452;13.120;2023-01-28T12:56:33;2.10;98.50
3980;DHT22;2004;52.452;13.120;2023-01-28T13:12:25;2.20;98.20
3980;DHT22;2004;52.452;13.120;2023-01-28T13:20:16;2.20;98.30
3980;DHT22;2004;52.452;13.120;2023-01-28T13:36:31;2.20;97.10
3980;DHT22;2004;52.452;13.120;2023-01-28T13:44:28;2.20;97.10
3980;DHT22;2004;52.452;13.120;2023-01-28T13:52:26;2.20;95.20
3980;DHT22;2004;52.452;13.120;2023-01-28T14:08:18;2.20;94.90
3980;DHT22;2004;52.452;13.120;2023-01-28T14:24:30;2.30;93.40
3980;DHT22;2004;52.452;13.120;2023-01-28T14:32:24;2.30;95.60
3980;DHT22;2004;52.452;13.120;2023-01-28T14:40:20;2.30;94.30
3980;DHT22;2004;52.452;13.120;2023-01-28T15:04:39;2.20;94.10
3980;DHT22;2004;52.452;13.120;2023-01-28T15:12:34;2.10;94.80
3980;DHT22;2004;52.452;13.120;2023-01-28T15:20:26;2.10;95.30
3980;DHT22;2004;52.452;13.120;2023-01-28T15:28:30;2.10;95.60
3980;DHT22;2004;52.452;13.120;2023-01-28T15:36:21;2.10;95.60
3980;DHT22;2004;52.452;13.120;2023-01-28T15:52:19;1.90;94.00
3980;DHT22;2004;52.452;13.120;2023-01-28T16:00:14;1.90;94.10
3980;DHT22;2004;52.452;13.120;2023-01-28T16:08:43;1.80;94.30
3980;DHT22;2004;52.452;13.120;2023-01-28T16:16:36;1.80;94.80
3980;DHT22;2004;52.452;13.120;2023-01-28T16:24:30;1.70;94.10
3980;DHT22;2004;52.452;13.120;2023-01-28T16:32:37;1.60;94.10
3980;DHT22;2004;52.452;13.120;2023-01-28T16:40:29;1.60;94.10
3980;DHT22;2004;52.452;13.120;2023-01-28T16:48:21;1.50;93.80
3980;DHT22;2004;52.452;13.120;2023-01-28T16:56:17;1.50;94.20
3980;DHT22;2004;52.452;13.120;2023-01-28T17:04:09;1.40;94.40
3980;DHT22;2004;52.452;13.120;2023-01-28T17:12:03;1.40;95.00
3980;DHT22;2004;52.452;13.120;2023-01-28T17:19:54;1.30;94.80
3980;DHT22;2004;52.452;13.120;2023-01-28T17:27:47;1.30;94.90
3980;DHT22;2004;52.452;13.120;2023-01-28T17:35:38;1.30;95.40
3980;DHT22;2004;52.452;13.120;2023-01-28T17:43:29;1.30;95.20
3980;DHT22;2004;52.452;13.120;2023-01-28T17:51:19;1.30;95.40
3980;DHT22;2004;52.452;13.120;2023-01-28T17:59:10;1.20;95.60
3980;DHT22;2004;52.452;13.120;2023-01-28T18:07:03;1.20;95.70
3980;DHT22;2004;52.452;13.120;2023-01-28T18:15:01;1.20;95.90
3980;DHT22;2004;52.452;13.120;2023-01-28T18:22:51;1.10;95.80
3980;DHT22;2004;52.452;13.120;2023-01-28T18:30:42;1.10;96.30
3980;DHT22;2004;52.452;13.120;2023-01-28T18:38:32;1.10;96.60
3980;DHT22;2004;52.452;13.120;2023-01-28T18:46:23;1.00;97.60
3980;DHT22;2004;52.452;13.120;2023-01-28T18:54:14;0.90;98.10
3980;DHT22;2004;52.452;13.120;2023-01-28T19:02:05;0.80;99.50
3980;DHT22;2004;52.452;13.120;2023-01-28T19:09:56;0.80;99.90
3980;DHT22;2004;52.452;13.120;2023-01-28T19:17:46;0.70;99.90
3980;DHT22;2004;52.452;13.120;2023-01-28T19:25:38;0.70;99.90
3980;DHT22;2004;52.452;13.120;2023-01-28T19:33:29;0.60;99.90
3980;DHT22;2004;52.452;13.120;2023-01-28T19:41:20;0.60;99.90
3980;DHT22;2004;52.452;13.120;2023-01-28T19:49:11;0.60;99.90
3980;DHT22;2004;52.452;13.120;2023-01-28T19:57:02;0.50;99.90
3980;DHT22;2004;52.452;13.120;2023-01-28T20:04:53;0.50;99.90
3980;DHT22;2004;52.452;13.120;2023-01-28T20:12:43;0.40;99.90
3980;DHT22;2004;52.452;13.120;2023-01-28T20:20:34;0.30;99.90
3980;DHT22;2004;52.452;13.120;2023-01-28T20:28:25;0.30;99.90
3980;DHT22;2004;52.452;13.120;2023-01-28T20:36:15;0.20;99.90
3980;DHT22;2004;52.452;13.120;2023-01-28T20:44:06;0.20;99.90
3980;DHT22;2004;52.452;13.120;2023-01-28T20:51:57;0.10;99.90
3980;DHT22;2004;52.452;13.120;2023-01-28T20:59:47;0.10;99.90
3980;DHT22;2004;52.452;13.120;2023-01-28T21:07:38;0.10;99.90
3980;DHT22;2004;52.452;13.120;2023-01-28T21:15:29;0.10;99.90
3980;DHT22;2004;52.452;13.120;2023-01-28T21:23:21;0.00;99.90
3980;DHT22;2004;52.452;13.120;2023-01-28T21:31:30;0.00;99.90
3980;DHT22;2004;52.452;13.120;2023-01-28T21:39:21;0.00;99.90
3980;DHT22;2004;52.452;13.120;2023-01-28T21:47:12;-0.10;99.90
3980;DHT22;2004;52.452;13.120;2023-01-28T21:55:03;-0.10;99.90
3980;DHT22;2004;52.452;13.120;2023-01-28T22:02:54;-0.10;99.90
3980;DHT22;2004;52.452;13.120;2023-01-28T22:10:44;0.00;99.90
3980;DHT22;2004;52.452;13.120;2023-01-28T22:18:35;0.00;99.90
3980;DHT22;2004;52.452;13.120;2023-01-28T22:26:25;0.00;99.90
3980;DHT22;2004;52.452;13.120;2023-01-28T22:34:16;0.00;99.90
3980;DHT22;2004;52.452;13.120;2023-01-28T22:42:07;0.00;99.90
3980;DHT22;2004;52.452;13.120;2023-01-28T22:49:57;-0.10;99.90
3980;DHT22;2004;52.452;13.120;2023-01-28T22:57:48;-0.10;99.90
3980;DHT22;2004;52.452;13.120;2023-01-28T23:05:39;-0.10;99.90
3980;DHT22;2004;52.452;13.120;2023-01-28T23:13:30;-0.10;99.90
3980;DHT22;2004;52.452;13.120;2023-01-28T23:21:39;-0.10;99.90
3980;DHT22;2004;52.452;13.120;2023-01-28T23:29:48;-0.10;99.90
3980;DHT22;2004;52.452;13.120;2023-01-28T23:37:40;-0.10;99.90
3980;DHT22;2004;52.452;13.120;2023-01-28T23:45:31;-0.10;99.90
3980;DHT22;2004;52.452;13.120;2023-01-28T23:53:21;0.00;99.90
